sensor_id;sensor_type;location;lat;lon;timestamp;temperature;humidity
63537;DHT22;49686;51.880;5.632;2023-04-25T00:00:17;3.10;99.90
63537;DHT22;49686;51.880;5.632;2023-04-25T00:02:44;3.00;99.90
63537;DHT22;49686;51.880;5.632;2023-04-25T00:05:11;2.90;99.90
63537;DHT22;49686;51.880;5.632;2023-04-25T00:07:38;2.90;99.90
63537;DHT22;49686;51.880;5.632;2023-04-25T00:10:06;2.90;99.90
63537;DHT22;49686;51.880;5.632;2023-04-25T00:12:33;2.90;99.90
63537;DHT22;49686;51.880;5.632;2023-04-25T00:15:00;2.90;99.90
63537;DHT22;49686;51.880;5.632;2023-04-25T00:17:28;2.90;99.90
63537;DHT22;49686;51.880;5.632;2023-04-25T00:19:55;2.90;99.90
63537;DHT22;49686;51.880;5.632;2023-04-25T00:22:21;2.90;99.90
63537;DHT22;49686;51.880;5.632;2023-04-25T00:24:48;2.90;99.90
63537;DHT22;49686;51.880;5.632;2023-04-25T00:27:15;2.90;99.90
63537;DHT22;49686;51.880;5.632;2023-04-25T00:29:42;2.90;99.90
63537;DHT22;49686;51.880;5.632;2023-04-25T00:32:09;3.00;99.90
63537;DHT22;49686;51.880;5.632;2023-04-25T00:34:37;3.00;99.90
63537;DHT22;49686;51.880;5.632;2023-04-25T00:37:04;2.90;99.90
63537;DHT22;49686;51.880;5.632;2023-04-25T00:39:30;2.90;99.90
63537;DHT22;49686;51.880;5.632;2023-04-25T00:41:58;2.90;99.90
63537;DHT22;49686;51.880;5.632;2023-04-25T00:44:25;2.80;99.90
63537;DHT22;49686;51.880;5.632;2023-04-25T00:46:52;2.70;99.90
63537;DHT22;49686;51.880;5.632;2023-04-25T00:49:20;2.60;99.90
63537;DHT22;49686;51.880;5.632;2023-04-25T00:51:48;2.50;99.90
63537;DHT22;49686;51.880;5.632;2023-04-25T00:54:15;2.40;99.90
63537;DHT22;49686;51.880;5.632;2023-04-25T00:56:42;2.40;99.90
63537;DHT22;49686;51.880;5.632;2023-04-25T00:59:10;2.30;99.90
63537;DHT22;49686;51.880;5.632;2023-04-25T01:01:38;2.20;99.90
63537;DHT22;49686;51.880;5.632;2023-04-25T01:04:05;2.20;99.90
63537;DHT22;49686;51.880;5.632;2023-04-25T01:06:32;2.20;99.90
63537;DHT22;49686;51.880;5.632;2023-04-25T01:09:00;2.10;99.90
63537;DHT22;49686;51.880;5.632;2023-04-25T01:11:28;2.10;99.90
63537;DHT22;49686;51.880;5.632;2023-04-25T01:13:54;2.10;99.90
63537;DHT22;49686;51.880;5.632;2023-04-25T01:16:22;2.00;99.90
63537;DHT22;49686;51.880;5.632;2023-04-25T01:18:49;2.10;99.90
63537;DHT22;49686;51.880;5.632;2023-04-25T01:21:17;2.10;99.90
63537;DHT22;49686;51.880;5.632;2023-04-25T01:23:45;2.10;99.90
63537;DHT22;49686;51.880;5.632;2023-04-25T01:26:12;2.20;99.90
63537;DHT22;49686;51.880;5.632;2023-04-25T01:28:39;2.20;99.90
63537;DHT22;49686;51.880;5.632;2023-04-25T01:31:06;2.30;99.90
63537;DHT22;49686;51.880;5.632;2023-04-25T01:33:33;2.30;99.90
63537;DHT22;49686;51.880;5.632;2023-04-25T01:36:00;2.30;99.90
63537;DHT22;49686;51.880;5.632;2023-04-25T01:38:28;2.30;99.90
63537;DHT22;49686;51.880;5.632;2023-04-25T01:40:55;2.20;99.90
63537;DHT22;49686;51.880;5.632;2023-04-25T01:43:23;2.20;99.90
63537;DHT22;49686;51.880;5.632;2023-04-25T01:45:50;2.20;99.90
63537;DHT22;49686;51.880;5.632;2023-04-25T01:48:18;2.10;99.90
63537;DHT22;49686;51.880;5.632;2023-04-25T01:50:45;2.10;99.90
63537;DHT22;49686;51.880;5.632;2023-04-25T01:53:13;2.00;99.90
63537;DHT22;49686;51.880;5.632;2023-04-25T01:55:41;1.90;99.90
63537;DHT22;49686;51.880;5.632;2023-04-25T01:58:08;1.80;99.90
63537;DHT22;49686;51.880;5.632;2023-04-25T02:00:35;1.70;99.90
63537;DHT22;49686;51.880;5.632;2023-04-25T02:03:02;1.60;99.90
63537;DHT22;49686;51.880;5.632;2023-04-25T02:05:34;1.60;99.90
63537;DHT22;49686;51.880;5.632;2023-04-25T02:08:04;1.60;99.90
63537;DHT22;49686;51.880;5.632;2023-04-25T02:10:31;1.60;99.90
63537;DHT22;49686;51.880;5.632;2023-04-25T02:12:59;1.50;99.90
63537;DHT22;49686;51.880;5.632;2023-04-25T02:15:26;1.50;99.90
63537;DHT22;49686;51.880;5.632;2023-04-25T02:17:53;1.50;99.90
63537;DHT22;49686;51.880;5.632;2023-04-25T02:20:21;1.50;99.90
63537;DHT22;49686;51.880;5.632;2023-04-25T02:22:48;1.40;99.90
63537;DHT22;49686;51.880;5.632;2023-04-25T02:25:15;1.30;99.90
63537;DHT22;49686;51.880;5.632;2023-04-25T02:27:42;1.20;99.90
63537;DHT22;49686;51.880;5.632;2023-04-25T02:30:11;1.20;99.90
63537;DHT22;49686;51.880;5.632;2023-04-25T02:32:39;1.20;99.90
63537;DHT22;49686;51.880;5.632;2023-04-25T02:35:06;1.20;99.90
63537;DHT22;49686;51.880;5.632;2023-04-25T02:37:35;1.20;99.90
63537;DHT22;49686;51.880;5.632;2023-04-25T02:40:03;1.20;99.90
63537;DHT22;49686;51.880;5.632;2023-04-25T02:42:30;1.10;99.90
63537;DHT22;49686;51.880;5.632;2023-04-25T02:44:56;1.10;99.90
63537;DHT22;49686;51.880;5.632;2023-04-25T02:47:25;1.00;99.90
63537;DHT22;49686;51.880;5.632;2023-04-25T02:49:52;1.00;99.90
63537;DHT22;49686;51.880;5.632;2023-04-25T02:52:18;0.90;99.90
63537;DHT22;49686;51.880;5.632;2023-04-25T02:54:45;0.80;99.90
63537;DHT22;49686;51.880;5.632;2023-04-25T02:57:12;0.80;99.90
63537;DHT22;49686;51.880;5.632;2023-04-25T02:59:39;0.90;99.90
63537;DHT22;49686;51.880;5.632;2023-04-25T03:02:05;0.90;99.90
63537;DHT22;49686;51.880;5.632;2023-04-25T03:04:33;0.80;99.90
63537;DHT22;49686;51.880;5.632;2023-04-25T03:07:00;0.90;99.90
63537;DHT22;49686;51.880;5.632;2023-04-25T03:09:27;0.90;99.90
63537;DHT22;49686;51.880;5.632;2023-04-25T03:11:54;0.90;99.90
63537;DHT22;49686;51.880;5.632;2023-04-25T03:14:21;1.00;99.90
63537;DHT22;49686;51.880;5.632;2023-04-25T03:16:47;1.00;99.90
63537;DHT22;49686;51.880;5.632;2023-04-25T03:19:14;0.90;99.90
63537;DHT22;49686;51.880;5.632;2023-04-25T03:21:43;0.90;99.90
63537;DHT22;49686;51.880;5.632;2023-04-25T03:24:10;0.70;99.90
63537;DHT22;49686;51.880;5.632;2023-04-25T03:26:36;0.60;99.90
63537;DHT22;49686;51.880;5.632;2023-04-25T03:29:03;0.60;99.90
63537;DHT22;49686;51.880;5.632;2023-04-25T03:31:30;0.60;99.90
63537;DHT22;49686;51.880;5.632;2023-04-25T03:33:57;0.70;99.90
63537;DHT22;49686;51.880;5.632;2023-04-25T03:36:24;0.70;99.90
63537;DHT22;49686;51.880;5.632;2023-04-25T03:38:52;0.90;99.90
63537;DHT22;49686;51.880;5.632;2023-04-25T03:41:19;0.90;99.90
63537;DHT22;49686;51.880;5.632;2023-04-25T03:43:46;1.00;99.90
63537;DHT22;49686;51.880;5.632;2023-04-25T03:46:13;1.10;99.90
63537;DHT22;49686;51.880;5.632;2023-04-25T03:48:41;1.10;99.90
63537;DHT22;49686;51.880;5.632;2023-04-25T03:51:07;1.20;99.90
63537;DHT22;49686;51.880;5.632;2023-04-25T03:53:34;1.20;99.90
63537;DHT22;49686;51.880;5.632;2023-04-25T03:56:02;1.20;99.90
63537;DHT22;49686;51.880;5.632;2023-04-25T03:58:29;1.20;99.90
63537;DHT22;49686;51.880;5.632;2023-04-25T04:00:56;1.30;99.90
63537;DHT22;49686;51.880;5.632;2023-04-25T04:03:23;1.30;99.90
63537;DHT22;49686;51.880;5.632;2023-04-25T04:05:50;1.30;99.90
63537;DHT22;49686;51.880;5.632;2023-04-25T04:08:17;1.30;99.90
63537;DHT22;49686;51.880;5.632;2023-04-25T04:10:44;1.30;99.90
63537;DHT22;49686;51.880;5.632;2023-04-25T04:13:12;1.20;99.90
63537;DHT22;49686;51.880;5.632;2023-04-25T04:15:39;1.10;99.90
63537;DHT22;49686;51.880;5.632;2023-04-25T04:18:06;1.20;99.90
63537;DHT22;49686;51.880;5.632;2023-04-25T04:20:33;1.30;99.90
63537;DHT22;49686;51.880;5.632;2023-04-25T04:22:59;1.50;99.90
63537;DHT22;49686;51.880;5.632;2023-04-25T04:25:26;1.60;99.90
63537;DHT22;49686;51.880;5.632;2023-04-25T04:27:53;1.80;99.90
63537;DHT22;49686;51.880;5.632;2023-04-25T04:30:23;2.00;99.90
63537;DHT22;49686;51.880;5.632;2023-04-25T04:32:50;2.20;99.90
63537;DHT22;49686;51.880;5.632;2023-04-25T04:35:17;2.30;99.90
63537;DHT22;49686;51.880;5.632;2023-04-25T04:37:43;2.40;99.90
63537;DHT22;49686;51.880;5.632;2023-04-25T04:40:11;2.50;99.90
63537;DHT22;49686;51.880;5.632;2023-04-25T04:42:37;2.60;99.90
63537;DHT22;49686;51.880;5.632;2023-04-25T04:45:05;2.60;99.90
63537;DHT22;49686;51.880;5.632;2023-04-25T04:49:39;2.70;99.90
63537;DHT22;49686;51.880;5.632;2023-04-25T04:52:06;2.80;99.90
63537;DHT22;49686;51.880;5.632;2023-04-25T04:54:33;2.80;99.90
63537;DHT22;49686;51.880;5.632;2023-04-25T04:57:00;2.80;99.90
63537;DHT22;49686;51.880;5.632;2023-04-25T04:59:28;2.80;99.90
63537;DHT22;49686;51.880;5.632;2023-04-25T05:01:55;2.90;99.90
63537;DHT22;49686;51.880;5.632;2023-04-25T05:04:22;2.90;99.90
63537;DHT22;49686;51.880;5.632;2023-04-25T05:06:52;3.00;99.90
63537;DHT22;49686;51.880;5.632;2023-04-25T05:09:19;3.10;99.90
63537;DHT22;49686;51.880;5.632;2023-04-25T05:11:46;3.20;99.90
63537;DHT22;49686;51.880;5.632;2023-04-25T05:14:13;3.30;99.90
63537;DHT22;49686;51.880;5.632;2023-04-25T05:16:39;3.30;99.90
63537;DHT22;49686;51.880;5.632;2023-04-25T05:19:06;3.30;99.90
63537;DHT22;49686;51.880;5.632;2023-04-25T05:21:33;3.40;99.90
63537;DHT22;49686;51.880;5.632;2023-04-25T05:24:01;3.40;99.90
63537;DHT22;49686;51.880;5.632;2023-04-25T05:26:28;3.40;99.90
63537;DHT22;49686;51.880;5.632;2023-04-25T05:28:56;3.50;99.90
63537;DHT22;49686;51.880;5.632;2023-04-25T05:31:23;3.50;99.90
63537;DHT22;49686;51.880;5.632;2023-04-25T05:33:50;3.50;99.90
63537;DHT22;49686;51.880;5.632;2023-04-25T05:36:18;3.60;99.90
63537;DHT22;49686;51.880;5.632;2023-04-25T05:38:45;3.60;99.90
63537;DHT22;49686;51.880;5.632;2023-04-25T05:41:13;3.70;99.90
63537;DHT22;49686;51.880;5.632;2023-04-25T05:43:40;3.80;99.90
63537;DHT22;49686;51.880;5.632;2023-04-25T05:46:07;3.80;99.90
63537;DHT22;49686;51.880;5.632;2023-04-25T05:48:34;3.90;99.90
63537;DHT22;49686;51.880;5.632;2023-04-25T05:51:00;3.90;99.90
63537;DHT22;49686;51.880;5.632;2023-04-25T05:53:27;3.90;99.90
63537;DHT22;49686;51.880;5.632;2023-04-25T05:55:54;3.90;99.90
63537;DHT22;49686;51.880;5.632;2023-04-25T05:58:22;4.00;99.90
63537;DHT22;49686;51.880;5.632;2023-04-25T06:00:49;4.00;99.90
63537;DHT22;49686;51.880;5.632;2023-04-25T06:03:16;4.20;99.90
63537;DHT22;49686;51.880;5.632;2023-04-25T06:05:46;4.90;99.90
63537;DHT22;49686;51.880;5.632;2023-04-25T06:08:13;5.80;99.90
63537;DHT22;49686;51.880;5.632;2023-04-25T06:10:41;7.00;99.90
63537;DHT22;49686;51.880;5.632;2023-04-25T06:13:08;8.20;99.90
63537;DHT22;49686;51.880;5.632;2023-04-25T06:15:36;9.40;99.90
63537;DHT22;49686;51.880;5.632;2023-04-25T06:18:03;9.20;99.90
63537;DHT22;49686;51.880;5.632;2023-04-25T06:20:30;9.80;99.90
63537;DHT22;49686;51.880;5.632;2023-04-25T06:22:57;9.20;99.90
63537;DHT22;49686;51.880;5.632;2023-04-25T06:25:23;9.40;99.90
63537;DHT22;49686;51.880;5.632;2023-04-25T06:27:50;10.30;99.90
63537;DHT22;49686;51.880;5.632;2023-04-25T06:30:17;10.80;99.90
63537;DHT22;49686;51.880;5.632;2023-04-25T06:32:45;11.50;99.90
63537;DHT22;49686;51.880;5.632;2023-04-25T06:35:15;11.20;99.90
63537;DHT22;49686;51.880;5.632;2023-04-25T06:37:41;10.70;99.90
63537;DHT22;49686;51.880;5.632;2023-04-25T06:40:09;9.60;99.90
63537;DHT22;49686;51.880;5.632;2023-04-25T06:42:35;8.80;99.90
63537;DHT22;49686;51.880;5.632;2023-04-25T06:45:03;8.30;99.90
63537;DHT22;49686;51.880;5.632;2023-04-25T06:47:31;8.10;99.90
63537;DHT22;49686;51.880;5.632;2023-04-25T06:49:59;7.40;99.90
63537;DHT22;49686;51.880;5.632;2023-04-25T06:52:26;7.10;99.90
63537;DHT22;49686;51.880;5.632;2023-04-25T06:54:52;7.10;99.90
63537;DHT22;49686;51.880;5.632;2023-04-25T06:57:19;7.30;99.90
63537;DHT22;49686;51.880;5.632;2023-04-25T06:59:46;7.50;99.90
63537;DHT22;49686;51.880;5.632;2023-04-25T07:02:13;7.60;99.90
63537;DHT22;49686;51.880;5.632;2023-04-25T07:04:40;7.40;99.90
63537;DHT22;49686;51.880;5.632;2023-04-25T07:07:08;7.20;99.90
63537;DHT22;49686;51.880;5.632;2023-04-25T07:09:35;7.10;99.90
63537;DHT22;49686;51.880;5.632;2023-04-25T07:12:02;6.90;99.90
63537;DHT22;49686;51.880;5.632;2023-04-25T07:14:29;7.00;99.90
63537;DHT22;49686;51.880;5.632;2023-04-25T07:16:56;7.20;99.90
63537;DHT22;49686;51.880;5.632;2023-04-25T07:19:23;7.30;99.90
63537;DHT22;49686;51.880;5.632;2023-04-25T07:21:49;7.30;99.90
63537;DHT22;49686;51.880;5.632;2023-04-25T07:24:20;7.10;99.90
63537;DHT22;49686;51.880;5.632;2023-04-25T07:26:47;7.00;99.90
63537;DHT22;49686;51.880;5.632;2023-04-25T07:29:14;7.30;99.90
63537;DHT22;49686;51.880;5.632;2023-04-25T07:31:41;8.40;99.90
63537;DHT22;49686;51.880;5.632;2023-04-25T07:34:08;8.90;99.90
63537;DHT22;49686;51.880;5.632;2023-04-25T07:36:34;9.50;99.90
63537;DHT22;49686;51.880;5.632;2023-04-25T07:39:01;9.70;99.90
63537;DHT22;49686;51.880;5.632;2023-04-25T07:41:29;10.40;99.90
63537;DHT22;49686;51.880;5.632;2023-04-25T07:43:56;10.30;99.90
63537;DHT22;49686;51.880;5.632;2023-04-25T07:46:23;10.50;99.90
63537;DHT22;49686;51.880;5.632;2023-04-25T07:48:50;10.80;99.90
63537;DHT22;49686;51.880;5.632;2023-04-25T07:51:17;11.20;99.90
63537;DHT22;49686;51.880;5.632;2023-04-25T07:53:44;11.00;99.90
63537;DHT22;49686;51.880;5.632;2023-04-25T07:56:10;11.10;99.90
63537;DHT22;49686;51.880;5.632;2023-04-25T07:58:39;10.50;99.90
63537;DHT22;49686;51.880;5.632;2023-04-25T08:01:05;10.00;99.90
63537;DHT22;49686;51.880;5.632;2023-04-25T08:03:32;9.80;99.90
63537;DHT22;49686;51.880;5.632;2023-04-25T08:05:59;9.60;99.90
63537;DHT22;49686;51.880;5.632;2023-04-25T08:08:29;9.90;99.90
63537;DHT22;49686;51.880;5.632;2023-04-25T08:10:55;10.60;99.90
63537;DHT22;49686;51.880;5.632;2023-04-25T08:13:22;11.40;99.90
63537;DHT22;49686;51.880;5.632;2023-04-25T08:15:50;11.30;99.90
63537;DHT22;49686;51.880;5.632;2023-04-25T08:18:17;11.10;99.90
63537;DHT22;49686;51.880;5.632;2023-04-25T08:20:44;11.20;99.90
63537;DHT22;49686;51.880;5.632;2023-04-25T08:23:12;11.00;99.90
63537;DHT22;49686;51.880;5.632;2023-04-25T08:25:39;10.90;99.90
63537;DHT22;49686;51.880;5.632;2023-04-25T08:28:06;10.60;99.40
63537;DHT22;49686;51.880;5.632;2023-04-25T08:30:33;10.90;99.70
63537;DHT22;49686;51.880;5.632;2023-04-25T08:33:01;11.40;98.20
63537;DHT22;49686;51.880;5.632;2023-04-25T08:35:28;11.80;97.70
63537;DHT22;49686;51.880;5.632;2023-04-25T08:37:54;11.20;97.80
63537;DHT22;49686;51.880;5.632;2023-04-25T08:40:22;10.30;96.80
63537;DHT22;49686;51.880;5.632;2023-04-25T08:42:50;9.40;99.90
63537;DHT22;49686;51.880;5.632;2023-04-25T08:45:18;9.20;99.90
63537;DHT22;49686;51.880;5.632;2023-04-25T08:47:45;8.90;99.90
63537;DHT22;49686;51.880;5.632;2023-04-25T08:50:15;8.60;99.90
63537;DHT22;49686;51.880;5.632;2023-04-25T08:52:44;8.70;99.90
63537;DHT22;49686;51.880;5.632;2023-04-25T08:55:12;8.70;99.90
63537;DHT22;49686;51.880;5.632;2023-04-25T08:57:40;8.30;99.90
63537;DHT22;49686;51.880;5.632;2023-04-25T09:00:09;8.30;99.90
63537;DHT22;49686;51.880;5.632;2023-04-25T09:02:37;8.60;99.90
63537;DHT22;49686;51.880;5.632;2023-04-25T09:05:05;8.90;99.90
63537;DHT22;49686;51.880;5.632;2023-04-25T09:07:33;9.20;99.90
63537;DHT22;49686;51.880;5.632;2023-04-25T09:10:00;9.60;99.90
63537;DHT22;49686;51.880;5.632;2023-04-25T09:12:27;9.60;99.90
63537;DHT22;49686;51.880;5.632;2023-04-25T09:15:06;9.50;99.90
63537;DHT22;49686;51.880;5.632;2023-04-25T09:17:33;9.80;99.90
63537;DHT22;49686;51.880;5.632;2023-04-25T09:20:07;9.50;99.90
63537;DHT22;49686;51.880;5.632;2023-04-25T09:22:37;9.40;99.90
63537;DHT22;49686;51.880;5.632;2023-04-25T09:25:08;9.40;99.40
63537;DHT22;49686;51.880;5.632;2023-04-25T09:27:35;9.40;99.30
63537;DHT22;49686;51.880;5.632;2023-04-25T09:30:02;10.00;99.60
63537;DHT22;49686;51.880;5.632;2023-04-25T09:32:32;10.30;98.60
63537;DHT22;49686;51.880;5.632;2023-04-25T09:34:59;9.40;99.80
63537;DHT22;49686;51.880;5.632;2023-04-25T09:37:27;8.70;99.90
63537;DHT22;49686;51.880;5.632;2023-04-25T09:39:57;8.10;99.90
63537;DHT22;49686;51.880;5.632;2023-04-25T09:42:25;7.90;99.90
63537;DHT22;49686;51.880;5.632;2023-04-25T09:44:53;8.10;99.90
63537;DHT22;49686;51.880;5.632;2023-04-25T09:47:20;8.40;99.90
63537;DHT22;49686;51.880;5.632;2023-04-25T09:49:47;8.60;99.90
63537;DHT22;49686;51.880;5.632;2023-04-25T09:52:15;8.60;99.90
63537;DHT22;49686;51.880;5.632;2023-04-25T09:54:42;8.60;98.60
63537;DHT22;49686;51.880;5.632;2023-04-25T09:57:15;8.50;99.60
63537;DHT22;49686;51.880;5.632;2023-04-25T09:59:46;8.50;99.80
63537;DHT22;49686;51.880;5.632;2023-04-25T10:02:14;8.60;98.80
63537;DHT22;49686;51.880;5.632;2023-04-25T10:04:42;9.00;98.20
63537;DHT22;49686;51.880;5.632;2023-04-25T10:07:11;9.50;96.50
63537;DHT22;49686;51.880;5.632;2023-04-25T10:09:39;9.40;95.40
63537;DHT22;49686;51.880;5.632;2023-04-25T10:12:06;9.20;94.80
63537;DHT22;49686;51.880;5.632;2023-04-25T10:14:35;9.30;95.40
63537;DHT22;49686;51.880;5.632;2023-04-25T10:17:02;9.50;96.40
63537;DHT22;49686;51.880;5.632;2023-04-25T10:19:32;10.10;96.50
63537;DHT22;49686;51.880;5.632;2023-04-25T10:22:07;10.60;95.10
63537;DHT22;49686;51.880;5.632;2023-04-25T10:24:35;11.00;94.40
63537;DHT22;49686;51.880;5.632;2023-04-25T10:27:03;11.10;94.60
63537;DHT22;49686;51.880;5.632;2023-04-25T10:29:30;10.50;94.00
63537;DHT22;49686;51.880;5.632;2023-04-25T10:31:59;10.60;94.80
63537;DHT22;49686;51.880;5.632;2023-04-25T10:34:38;11.10;94.70
63537;DHT22;49686;51.880;5.632;2023-04-25T10:37:05;11.60;93.90
63537;DHT22;49686;51.880;5.632;2023-04-25T10:39:34;12.00;93.20
63537;DHT22;49686;51.880;5.632;2023-04-25T10:42:02;11.90;93.60
63537;DHT22;49686;51.880;5.632;2023-04-25T10:44:29;11.30;94.40
63537;DHT22;49686;51.880;5.632;2023-04-25T10:46:58;10.80;96.10
63537;DHT22;49686;51.880;5.632;2023-04-25T10:49:30;10.60;96.20
63537;DHT22;49686;51.880;5.632;2023-04-25T10:52:27;9.80;97.00
63537;DHT22;49686;51.880;5.632;2023-04-25T10:54:55;9.20;99.00
63537;DHT22;49686;51.880;5.632;2023-04-25T10:57:37;8.50;99.90
63537;DHT22;49686;51.880;5.632;2023-04-25T11:00:09;8.20;99.90
63537;DHT22;49686;51.880;5.632;2023-04-25T11:02:41;8.20;99.90
63537;DHT22;49686;51.880;5.632;2023-04-25T11:05:08;8.40;99.90
63537;DHT22;49686;51.880;5.632;2023-04-25T11:07:39;9.00;99.90
63537;DHT22;49686;51.880;5.632;2023-04-25T11:10:18;9.60;99.90
63537;DHT22;49686;51.880;5.632;2023-04-25T11:12:45;10.20;99.90
63537;DHT22;49686;51.880;5.632;2023-04-25T11:15:13;10.20;98.40
63537;DHT22;49686;51.880;5.632;2023-04-25T11:17:41;10.20;98.80
63537;DHT22;49686;51.880;5.632;2023-04-25T11:20:10;10.00;97.40
63537;DHT22;49686;51.880;5.632;2023-04-25T11:22:38;10.20;98.10
63537;DHT22;49686;51.880;5.632;2023-04-25T11:25:06;10.30;97.50
63537;DHT22;49686;51.880;5.632;2023-04-25T11:27:33;10.60;98.00
63537;DHT22;49686;51.880;5.632;2023-04-25T11:30:09;10.90;95.60
63537;DHT22;49686;51.880;5.632;2023-04-25T11:32:36;11.00;96.90
63537;DHT22;49686;51.880;5.632;2023-04-25T11:35:09;11.40;96.20
63537;DHT22;49686;51.880;5.632;2023-04-25T11:37:36;11.20;95.90
63537;DHT22;49686;51.880;5.632;2023-04-25T11:40:04;11.20;96.30
63537;DHT22;49686;51.880;5.632;2023-04-25T11:42:31;11.00;97.00
63537;DHT22;49686;51.880;5.632;2023-04-25T11:45:01;10.20;96.70
63537;DHT22;49686;51.880;5.632;2023-04-25T11:47:29;10.10;97.80
63537;DHT22;49686;51.880;5.632;2023-04-25T11:49:57;10.10;97.40
63537;DHT22;49686;51.880;5.632;2023-04-25T11:52:35;10.40;96.90
63537;DHT22;49686;51.880;5.632;2023-04-25T11:55:04;10.40;96.30
63537;DHT22;49686;51.880;5.632;2023-04-25T11:57:31;10.50;95.90
63537;DHT22;49686;51.880;5.632;2023-04-25T12:00:06;10.30;95.70
63537;DHT22;49686;51.880;5.632;2023-04-25T12:02:34;10.40;97.30
63537;DHT22;49686;51.880;5.632;2023-04-25T12:05:01;10.80;97.60
63537;DHT22;49686;51.880;5.632;2023-04-25T12:07:49;11.30;97.50
63537;DHT22;49686;51.880;5.632;2023-04-25T12:10:17;11.30;96.70
63537;DHT22;49686;51.880;5.632;2023-04-25T12:12:45;11.20;95.40
63537;DHT22;49686;51.880;5.632;2023-04-25T12:15:14;10.70;95.00
63537;DHT22;49686;51.880;5.632;2023-04-25T12:17:44;10.90;95.00
63537;DHT22;49686;51.880;5.632;2023-04-25T12:20:13;10.90;95.70
63537;DHT22;49686;51.880;5.632;2023-04-25T12:22:40;10.70;97.30
63537;DHT22;49686;51.880;5.632;2023-04-25T12:25:09;9.50;98.90
63537;DHT22;49686;51.880;5.632;2023-04-25T12:27:35;8.90;99.90
63537;DHT22;49686;51.880;5.632;2023-04-25T12:30:04;8.60;99.90
63537;DHT22;49686;51.880;5.632;2023-04-25T12:32:31;8.70;99.90
63537;DHT22;49686;51.880;5.632;2023-04-25T12:34:58;9.10;99.90
63537;DHT22;49686;51.880;5.632;2023-04-25T12:37:25;9.50;99.90
63537;DHT22;49686;51.880;5.632;2023-04-25T12:39:53;10.00;99.90
63537;DHT22;49686;51.880;5.632;2023-04-25T12:42:24;10.50;97.90
63537;DHT22;49686;51.880;5.632;2023-04-25T12:44:51;10.70;94.80
63537;DHT22;49686;51.880;5.632;2023-04-25T12:47:17;10.20;93.70
63537;DHT22;49686;51.880;5.632;2023-04-25T12:49:44;10.10;95.20
63537;DHT22;49686;51.880;5.632;2023-04-25T12:52:11;10.40;93.50
63537;DHT22;49686;51.880;5.632;2023-04-25T12:54:38;10.00;91.90
63537;DHT22;49686;51.880;5.632;2023-04-25T12:57:05;9.60;92.70
63537;DHT22;49686;51.880;5.632;2023-04-25T12:59:33;9.70;92.80
63537;DHT22;49686;51.880;5.632;2023-04-25T13:01:59;9.90;93.50
63537;DHT22;49686;51.880;5.632;2023-04-25T13:04:26;10.40;92.30
63537;DHT22;49686;51.880;5.632;2023-04-25T13:06:53;10.60;92.90
63537;DHT22;49686;51.880;5.632;2023-04-25T13:09:20;10.10;92.50
63537;DHT22;49686;51.880;5.632;2023-04-25T13:11:47;9.70;94.40
63537;DHT22;49686;51.880;5.632;2023-04-25T13:14:14;9.30;95.30
63537;DHT22;49686;51.880;5.632;2023-04-25T13:16:42;9.20;95.60
63537;DHT22;49686;51.880;5.632;2023-04-25T13:19:09;9.00;94.50
63537;DHT22;49686;51.880;5.632;2023-04-25T13:21:36;9.00;94.10
63537;DHT22;49686;51.880;5.632;2023-04-25T13:24:03;9.30;92.80
63537;DHT22;49686;51.880;5.632;2023-04-25T13:26:30;9.30;92.70
63537;DHT22;49686;51.880;5.632;2023-04-25T13:28:56;9.40;90.80
63537;DHT22;49686;51.880;5.632;2023-04-25T13:31:23;9.50;90.40
63537;DHT22;49686;51.880;5.632;2023-04-25T13:33:51;9.80;91.20
63537;DHT22;49686;51.880;5.632;2023-04-25T13:36:19;9.80;91.80
63537;DHT22;49686;51.880;5.632;2023-04-25T13:38:46;10.30;90.30
63537;DHT22;49686;51.880;5.632;2023-04-25T13:41:13;10.40;89.40
63537;DHT22;49686;51.880;5.632;2023-04-25T13:43:40;10.40;90.70
63537;DHT22;49686;51.880;5.632;2023-04-25T13:46:07;10.70;90.80
63537;DHT22;49686;51.880;5.632;2023-04-25T13:48:52;10.50;90.70
63537;DHT22;49686;51.880;5.632;2023-04-25T13:51:28;10.50;92.00
63537;DHT22;49686;51.880;5.632;2023-04-25T13:53:58;10.40;91.90
63537;DHT22;49686;51.880;5.632;2023-04-25T13:56:24;10.10;88.70
63537;DHT22;49686;51.880;5.632;2023-04-25T13:58:51;9.80;90.50
63537;DHT22;49686;51.880;5.632;2023-04-25T14:01:18;10.00;91.50
63537;DHT22;49686;51.880;5.632;2023-04-25T14:03:45;10.20;88.40
63537;DHT22;49686;51.880;5.632;2023-04-25T14:06:14;10.70;87.70
63537;DHT22;49686;51.880;5.632;2023-04-25T14:08:40;11.00;88.20
63537;DHT22;49686;51.880;5.632;2023-04-25T14:11:07;10.90;87.90
63537;DHT22;49686;51.880;5.632;2023-04-25T14:13:34;10.80;88.00
63537;DHT22;49686;51.880;5.632;2023-04-25T14:16:01;10.60;89.20
63537;DHT22;49686;51.880;5.632;2023-04-25T14:18:29;10.40;90.10
63537;DHT22;49686;51.880;5.632;2023-04-25T14:20:55;10.00;91.60
63537;DHT22;49686;51.880;5.632;2023-04-25T14:23:24;9.60;92.40
63537;DHT22;49686;51.880;5.632;2023-04-25T14:25:50;9.30;92.70
63537;DHT22;49686;51.880;5.632;2023-04-25T14:28:17;9.10;92.70
63537;DHT22;49686;51.880;5.632;2023-04-25T14:30:44;9.00;91.90
63537;DHT22;49686;51.880;5.632;2023-04-25T14:33:11;9.00;92.10
63537;DHT22;49686;51.880;5.632;2023-04-25T14:35:38;8.60;92.30
63537;DHT22;49686;51.880;5.632;2023-04-25T14:38:05;8.20;92.90
63537;DHT22;49686;51.880;5.632;2023-04-25T14:40:33;8.20;93.10
63537;DHT22;49686;51.880;5.632;2023-04-25T14:43:00;8.20;93.80
63537;DHT22;49686;51.880;5.632;2023-04-25T14:45:26;8.40;94.80
63537;DHT22;49686;51.880;5.632;2023-04-25T14:47:53;8.50;94.70
63537;DHT22;49686;51.880;5.632;2023-04-25T14:50:20;8.60;94.20
63537;DHT22;49686;51.880;5.632;2023-04-25T14:52:47;8.90;93.10
63537;DHT22;49686;51.880;5.632;2023-04-25T14:55:14;8.80;93.10
63537;DHT22;49686;51.880;5.632;2023-04-25T14:57:42;8.70;94.60
63537;DHT22;49686;51.880;5.632;2023-04-25T15:00:11;8.40;94.10
63537;DHT22;49686;51.880;5.632;2023-04-25T15:02:38;8.10;94.70
63537;DHT22;49686;51.880;5.632;2023-04-25T15:05:06;8.00;95.60
63537;DHT22;49686;51.880;5.632;2023-04-25T15:07:33;8.10;96.10
63537;DHT22;49686;51.880;5.632;2023-04-25T15:10:00;8.00;95.70
63537;DHT22;49686;51.880;5.632;2023-04-25T15:12:27;7.90;96.90
63537;DHT22;49686;51.880;5.632;2023-04-25T15:14:55;7.90;97.00
63537;DHT22;49686;51.880;5.632;2023-04-25T15:17:22;7.90;97.60
63537;DHT22;49686;51.880;5.632;2023-04-25T15:19:49;7.70;98.10
63537;DHT22;49686;51.880;5.632;2023-04-25T15:22:16;7.90;98.90
63537;DHT22;49686;51.880;5.632;2023-04-25T15:24:43;8.00;98.40
63537;DHT22;49686;51.880;5.632;2023-04-25T15:27:09;8.10;97.30
63537;DHT22;49686;51.880;5.632;2023-04-25T15:29:36;8.00;95.90
63537;DHT22;49686;51.880;5.632;2023-04-25T15:32:04;8.10;96.00
63537;DHT22;49686;51.880;5.632;2023-04-25T15:34:31;7.90;95.00
63537;DHT22;49686;51.880;5.632;2023-04-25T15:37:00;8.00;94.30
63537;DHT22;49686;51.880;5.632;2023-04-25T15:39:27;8.10;94.50
63537;DHT22;49686;51.880;5.632;2023-04-25T15:41:54;8.30;95.10
63537;DHT22;49686;51.880;5.632;2023-04-25T15:44:21;8.50;95.00
63537;DHT22;49686;51.880;5.632;2023-04-25T15:46:47;8.50;95.30